Terminal Aerodrome Forecast
Issued by NWS

Home | Current Version | Previous Version | Text Only | Print | Product List | Glossary On
Versions: 1 2 3 4 5 6 7 8 9 10 11 12 13
520
FTUS45 KREV 282215 AAA
TAFMMH
TAF AMD
KMMH 282215Z 2822/2918 28011G20KT P6SM VCTS SCT110CB BKN200
      TEMPO 2822/2824 17013G21KT
     FM290400 VRB04KT P6SM SCT200=

USA.gov is the U.S. government's official web portal to all federal, state and local government web resources and services.